sensor_id;sensor_type;location;lat;lon;timestamp;P1;durP1;ratioP1;P2;durP2;ratioP2
355;SDS011;62514;48.112;11.566;2024-01-16T00:01:11;108.03;;;35.50;;
355;SDS011;62514;48.112;11.566;2024-01-16T00:03:38;101.23;;;34.27;;
355;SDS011;62514;48.112;11.566;2024-01-16T00:06:04;100.13;;;34.20;;
355;SDS011;62514;48.112;11.566;2024-01-16T00:08:31;108.40;;;35.70;;
355;SDS011;62514;48.112;11.566;2024-01-16T00:10:57;98.77;;;33.87;;
355;SDS011;62514;48.112;11.566;2024-01-16T00:13:22;101.93;;;34.83;;
355;SDS011;62514;48.112;11.566;2024-01-16T00:15:48;102.97;;;34.87;;
355;SDS011;62514;48.112;11.566;2024-01-16T00:18:15;106.90;;;36.00;;
355;SDS011;62514;48.112;11.566;2024-01-16T00:20:41;106.10;;;35.00;;
355;SDS011;62514;48.112;11.566;2024-01-16T00:23:07;102.40;;;35.10;;
355;SDS011;62514;48.112;11.566;2024-01-16T00:25:34;101.37;;;34.33;;
355;SDS011;62514;48.112;11.566;2024-01-16T00:28:00;114.17;;;39.23;;
355;SDS011;62514;48.112;11.566;2024-01-16T00:30:27;105.43;;;35.90;;
355;SDS011;62514;48.112;11.566;2024-01-16T00:32:54;105.47;;;36.03;;
355;SDS011;62514;48.112;11.566;2024-01-16T00:35:20;101.53;;;37.20;;
355;SDS011;62514;48.112;11.566;2024-01-16T00:37:46;89.23;;;33.47;;
355;SDS011;62514;48.112;11.566;2024-01-16T00:40:12;82.47;;;31.53;;
355;SDS011;62514;48.112;11.566;2024-01-16T00:42:38;90.43;;;33.27;;
355;SDS011;62514;48.112;11.566;2024-01-16T00:45:05;82.20;;;31.57;;
355;SDS011;62514;48.112;11.566;2024-01-16T00:47:31;83.43;;;32.30;;
355;SDS011;62514;48.112;11.566;2024-01-16T00:49:58;80.47;;;31.30;;
355;SDS011;62514;48.112;11.566;2024-01-16T00:52:26;80.37;;;31.50;;
355;SDS011;62514;48.112;11.566;2024-01-16T00:54:52;79.60;;;30.67;;
355;SDS011;62514;48.112;11.566;2024-01-16T00:57:18;86.07;;;33.40;;
355;SDS011;62514;48.112;11.566;2024-01-16T00:59:47;83.30;;;31.83;;
355;SDS011;62514;48.112;11.566;2024-01-16T01:02:13;77.83;;;30.73;;
355;SDS011;62514;48.112;11.566;2024-01-16T01:04:40;82.70;;;32.00;;
355;SDS011;62514;48.112;11.566;2024-01-16T01:07:07;83.97;;;32.50;;
355;SDS011;62514;48.112;11.566;2024-01-16T01:09:33;86.03;;;32.97;;
355;SDS011;62514;48.112;11.566;2024-01-16T01:11:59;77.30;;;30.60;;
355;SDS011;62514;48.112;11.566;2024-01-16T01:14:25;80.13;;;30.83;;
355;SDS011;62514;48.112;11.566;2024-01-16T01:16:54;84.13;;;32.53;;
355;SDS011;62514;48.112;11.566;2024-01-16T01:19:20;91.40;;;35.47;;
355;SDS011;62514;48.112;11.566;2024-01-16T01:21:46;80.73;;;31.80;;
355;SDS011;62514;48.112;11.566;2024-01-16T01:24:12;76.50;;;30.30;;
355;SDS011;62514;48.112;11.566;2024-01-16T01:26:38;81.13;;;30.47;;
355;SDS011;62514;48.112;11.566;2024-01-16T01:29:04;78.30;;;30.93;;
355;SDS011;62514;48.112;11.566;2024-01-16T01:31:30;77.97;;;31.10;;
355;SDS011;62514;48.112;11.566;2024-01-16T01:33:56;77.17;;;31.10;;
355;SDS011;62514;48.112;11.566;2024-01-16T01:36:22;78.40;;;31.43;;
355;SDS011;62514;48.112;11.566;2024-01-16T01:38:48;78.97;;;31.70;;
355;SDS011;62514;48.112;11.566;2024-01-16T01:41:14;74.70;;;29.87;;
355;SDS011;62514;48.112;11.566;2024-01-16T01:43:40;76.33;;;30.60;;
355;SDS011;62514;48.112;11.566;2024-01-16T01:46:16;79.70;;;31.50;;
355;SDS011;62514;48.112;11.566;2024-01-16T01:48:44;77.20;;;31.10;;
355;SDS011;62514;48.112;11.566;2024-01-16T01:51:13;77.57;;;31.30;;
355;SDS011;62514;48.112;11.566;2024-01-16T01:53:43;77.87;;;31.00;;
355;SDS011;62514;48.112;11.566;2024-01-16T01:56:17;77.97;;;30.87;;
355;SDS011;62514;48.112;11.566;2024-01-16T01:58:45;79.70;;;31.60;;
355;SDS011;62514;48.112;11.566;2024-01-16T02:01:13;80.73;;;31.60;;
355;SDS011;62514;48.112;11.566;2024-01-16T02:03:42;78.07;;;31.03;;
355;SDS011;62514;48.112;11.566;2024-01-16T02:06:10;78.67;;;31.37;;
355;SDS011;62514;48.112;11.566;2024-01-16T02:08:37;74.53;;;30.20;;
355;SDS011;62514;48.112;11.566;2024-01-16T02:11:03;78.53;;;30.70;;
355;SDS011;62514;48.112;11.566;2024-01-16T02:13:29;80.00;;;31.67;;
355;SDS011;62514;48.112;11.566;2024-01-16T02:15:55;82.97;;;32.50;;
355;SDS011;62514;48.112;11.566;2024-01-16T02:18:21;80.83;;;32.10;;
355;SDS011;62514;48.112;11.566;2024-01-16T02:20:47;76.90;;;30.80;;
355;SDS011;62514;48.112;11.566;2024-01-16T02:23:14;78.40;;;31.03;;
355;SDS011;62514;48.112;11.566;2024-01-16T02:25:41;74.20;;;29.80;;
355;SDS011;62514;48.112;11.566;2024-01-16T02:28:07;76.27;;;30.47;;
355;SDS011;62514;48.112;11.566;2024-01-16T02:30:33;77.37;;;31.07;;
355;SDS011;62514;48.112;11.566;2024-01-16T02:32:59;76.30;;;30.70;;
355;SDS011;62514;48.112;11.566;2024-01-16T02:35:25;73.70;;;29.83;;
355;SDS011;62514;48.112;11.566;2024-01-16T02:37:51;79.00;;;31.73;;
355;SDS011;62514;48.112;11.566;2024-01-16T02:40:17;78.83;;;31.53;;
355;SDS011;62514;48.112;11.566;2024-01-16T02:42:43;75.53;;;30.60;;
355;SDS011;62514;48.112;11.566;2024-01-16T02:45:09;77.23;;;30.90;;
355;SDS011;62514;48.112;11.566;2024-01-16T02:47:35;75.27;;;30.30;;
355;SDS011;62514;48.112;11.566;2024-01-16T02:50:01;75.80;;;30.70;;
355;SDS011;62514;48.112;11.566;2024-01-16T02:52:27;74.57;;;30.23;;
355;SDS011;62514;48.112;11.566;2024-01-16T02:54:53;76.47;;;29.83;;
355;SDS011;62514;48.112;11.566;2024-01-16T02:57:19;76.10;;;30.50;;
355;SDS011;62514;48.112;11.566;2024-01-16T02:59:45;77.20;;;31.00;;
355;SDS011;62514;48.112;11.566;2024-01-16T03:02:12;75.20;;;30.20;;
355;SDS011;62514;48.112;11.566;2024-01-16T03:04:38;76.20;;;30.93;;
355;SDS011;62514;48.112;11.566;2024-01-16T03:07:05;77.43;;;31.00;;
355;SDS011;62514;48.112;11.566;2024-01-16T03:09:31;75.70;;;30.47;;
355;SDS011;62514;48.112;11.566;2024-01-16T03:11:58;73.70;;;29.90;;
355;SDS011;62514;48.112;11.566;2024-01-16T03:14:25;76.43;;;31.30;;
355;SDS011;62514;48.112;11.566;2024-01-16T03:16:50;76.07;;;30.43;;
355;SDS011;62514;48.112;11.566;2024-01-16T03:19:16;81.40;;;33.43;;
355;SDS011;62514;48.112;11.566;2024-01-16T03:21:42;72.60;;;29.90;;
355;SDS011;62514;48.112;11.566;2024-01-16T03:24:08;74.83;;;30.20;;
355;SDS011;62514;48.112;11.566;2024-01-16T03:26:36;72.30;;;29.50;;
355;SDS011;62514;48.112;11.566;2024-01-16T03:29:03;73.00;;;30.20;;
355;SDS011;62514;48.112;11.566;2024-01-16T03:31:30;75.57;;;30.83;;
355;SDS011;62514;48.112;11.566;2024-01-16T03:33:56;72.90;;;29.80;;
355;SDS011;62514;48.112;11.566;2024-01-16T03:36:22;71.47;;;29.60;;
355;SDS011;62514;48.112;11.566;2024-01-16T03:38:48;72.50;;;29.60;;
355;SDS011;62514;48.112;11.566;2024-01-16T03:41:14;71.00;;;29.30;;
355;SDS011;62514;48.112;11.566;2024-01-16T03:43:40;76.77;;;31.33;;
355;SDS011;62514;48.112;11.566;2024-01-16T03:46:06;71.73;;;29.77;;
355;SDS011;62514;48.112;11.566;2024-01-16T03:48:33;78.17;;;31.93;;
355;SDS011;62514;48.112;11.566;2024-01-16T03:50:58;73.40;;;30.00;;
355;SDS011;62514;48.112;11.566;2024-01-16T03:53:25;74.60;;;30.20;;
355;SDS011;62514;48.112;11.566;2024-01-16T03:55:51;73.63;;;29.90;;
355;SDS011;62514;48.112;11.566;2024-01-16T03:58:17;71.70;;;29.40;;
355;SDS011;62514;48.112;11.566;2024-01-16T04:00:43;74.57;;;30.87;;
355;SDS011;62514;48.112;11.566;2024-01-16T04:03:09;72.33;;;30.27;;
355;SDS011;62514;48.112;11.566;2024-01-16T04:05:36;73.27;;;30.30;;
355;SDS011;62514;48.112;11.566;2024-01-16T04:08:02;64.47;;;27.77;;
355;SDS011;62514;48.112;11.566;2024-01-16T04:10:28;75.20;;;30.47;;
355;SDS011;62514;48.112;11.566;2024-01-16T04:12:54;69.83;;;29.07;;
355;SDS011;62514;48.112;11.566;2024-01-16T04:15:20;73.00;;;30.53;;
355;SDS011;62514;48.112;11.566;2024-01-16T04:17:46;80.67;;;33.67;;
355;SDS011;62514;48.112;11.566;2024-01-16T04:20:12;72.47;;;29.60;;
355;SDS011;62514;48.112;11.566;2024-01-16T04:22:38;72.80;;;29.90;;
355;SDS011;62514;48.112;11.566;2024-01-16T04:25:05;71.80;;;29.73;;
355;SDS011;62514;48.112;11.566;2024-01-16T04:27:31;73.20;;;30.07;;
355;SDS011;62514;48.112;11.566;2024-01-16T04:29:57;73.67;;;30.03;;
355;SDS011;62514;48.112;11.566;2024-01-16T04:32:23;70.70;;;29.30;;
355;SDS011;62514;48.112;11.566;2024-01-16T04:34:49;71.90;;;30.17;;
355;SDS011;62514;48.112;11.566;2024-01-16T04:37:15;69.60;;;29.13;;
355;SDS011;62514;48.112;11.566;2024-01-16T04:39:41;78.67;;;31.70;;
355;SDS011;62514;48.112;11.566;2024-01-16T04:42:07;71.73;;;30.00;;
355;SDS011;62514;48.112;11.566;2024-01-16T04:44:33;69.37;;;29.17;;
355;SDS011;62514;48.112;11.566;2024-01-16T04:46:59;69.50;;;28.77;;
355;SDS011;62514;48.112;11.566;2024-01-16T04:49:25;70.50;;;29.70;;
355;SDS011;62514;48.112;11.566;2024-01-16T04:51:51;74.50;;;31.83;;
355;SDS011;62514;48.112;11.566;2024-01-16T04:54:17;74.63;;;30.53;;
355;SDS011;62514;48.112;11.566;2024-01-16T04:56:43;72.60;;;30.10;;
355;SDS011;62514;48.112;11.566;2024-01-16T04:59:09;74.60;;;30.40;;
355;SDS011;62514;48.112;11.566;2024-01-16T05:01:35;70.67;;;29.60;;
355;SDS011;62514;48.112;11.566;2024-01-16T05:04:01;72.90;;;29.70;;
355;SDS011;62514;48.112;11.566;2024-01-16T05:06:27;69.80;;;29.50;;
355;SDS011;62514;48.112;11.566;2024-01-16T05:08:53;66.70;;;28.57;;
355;SDS011;62514;48.112;11.566;2024-01-16T05:11:19;58.97;;;24.40;;
355;SDS011;62514;48.112;11.566;2024-01-16T05:13:45;69.17;;;29.10;;
355;SDS011;62514;48.112;11.566;2024-01-16T05:16:11;68.80;;;28.80;;
355;SDS011;62514;48.112;11.566;2024-01-16T05:18:36;69.00;;;29.27;;
355;SDS011;62514;48.112;11.566;2024-01-16T05:21:03;70.67;;;29.60;;
355;SDS011;62514;48.112;11.566;2024-01-16T05:23:30;67.60;;;28.70;;
355;SDS011;62514;48.112;11.566;2024-01-16T05:25:56;68.63;;;28.90;;
355;SDS011;62514;48.112;11.566;2024-01-16T05:28:22;67.80;;;28.80;;
355;SDS011;62514;48.112;11.566;2024-01-16T05:30:48;70.40;;;29.40;;
355;SDS011;62514;48.112;11.566;2024-01-16T05:33:14;70.73;;;29.70;;
355;SDS011;62514;48.112;11.566;2024-01-16T05:35:40;69.70;;;29.70;;
355;SDS011;62514;48.112;11.566;2024-01-16T05:38:05;66.37;;;28.50;;
355;SDS011;62514;48.112;11.566;2024-01-16T05:40:32;71.33;;;29.90;;
355;SDS011;62514;48.112;11.566;2024-01-16T05:42:58;64.20;;;27.90;;
355;SDS011;62514;48.112;11.566;2024-01-16T05:45:24;67.20;;;28.73;;
355;SDS011;62514;48.112;11.566;2024-01-16T05:47:50;80.73;;;33.97;;
355;SDS011;62514;48.112;11.566;2024-01-16T05:50:15;69.13;;;29.37;;
355;SDS011;62514;48.112;11.566;2024-01-16T05:52:44;70.47;;;29.50;;
355;SDS011;62514;48.112;11.566;2024-01-16T05:55:10;71.20;;;30.53;;
355;SDS011;62514;48.112;11.566;2024-01-16T05:57:37;66.23;;;28.93;;
355;SDS011;62514;48.112;11.566;2024-01-16T06:00:03;69.27;;;30.17;;
355;SDS011;62514;48.112;11.566;2024-01-16T06:02:31;67.80;;;29.27;;
355;SDS011;62514;48.112;11.566;2024-01-16T06:04:57;66.07;;;28.83;;
355;SDS011;62514;48.112;11.566;2024-01-16T06:07:23;63.90;;;28.00;;
355;SDS011;62514;48.112;11.566;2024-01-16T06:09:49;66.63;;;28.63;;
355;SDS011;62514;48.112;11.566;2024-01-16T06:12:15;67.13;;;28.83;;
355;SDS011;62514;48.112;11.566;2024-01-16T06:14:41;70.73;;;29.80;;
355;SDS011;62514;48.112;11.566;2024-01-16T06:17:07;70.73;;;30.03;;
355;SDS011;62514;48.112;11.566;2024-01-16T06:19:33;68.20;;;29.00;;
355;SDS011;62514;48.112;11.566;2024-01-16T06:21:59;79.30;;;33.97;;
355;SDS011;62514;48.112;11.566;2024-01-16T06:24:25;66.80;;;28.87;;
355;SDS011;62514;48.112;11.566;2024-01-16T06:26:51;67.80;;;28.93;;
355;SDS011;62514;48.112;11.566;2024-01-16T06:29:17;64.90;;;28.20;;
355;SDS011;62514;48.112;11.566;2024-01-16T06:31:43;74.33;;;31.60;;
355;SDS011;62514;48.112;11.566;2024-01-16T06:34:09;70.03;;;29.70;;
355;SDS011;62514;48.112;11.566;2024-01-16T06:36:35;71.60;;;29.80;;
355;SDS011;62514;48.112;11.566;2024-01-16T06:39:01;67.27;;;28.50;;
355;SDS011;62514;48.112;11.566;2024-01-16T06:41:28;67.73;;;28.63;;
355;SDS011;62514;48.112;11.566;2024-01-16T06:43:54;76.60;;;31.67;;
355;SDS011;62514;48.112;11.566;2024-01-16T06:46:20;75.70;;;31.67;;
355;SDS011;62514;48.112;11.566;2024-01-16T06:48:46;71.07;;;30.10;;
355;SDS011;62514;48.112;11.566;2024-01-16T06:51:13;70.07;;;29.93;;
355;SDS011;62514;48.112;11.566;2024-01-16T06:53:41;71.83;;;30.80;;
355;SDS011;62514;48.112;11.566;2024-01-16T06:56:07;70.13;;;29.50;;
355;SDS011;62514;48.112;11.566;2024-01-16T06:58:33;74.57;;;31.53;;
355;SDS011;62514;48.112;11.566;2024-01-16T07:01:00;73.60;;;31.13;;
355;SDS011;62514;48.112;11.566;2024-01-16T07:03:26;74.10;;;31.27;;
355;SDS011;62514;48.112;11.566;2024-01-16T07:05:52;74.63;;;31.43;;
355;SDS011;62514;48.112;11.566;2024-01-16T07:08:18;68.77;;;28.70;;
355;SDS011;62514;48.112;11.566;2024-01-16T07:10:44;73.90;;;30.27;;
355;SDS011;62514;48.112;11.566;2024-01-16T07:13:10;69.30;;;29.23;;
355;SDS011;62514;48.112;11.566;2024-01-16T07:15:37;69.13;;;30.30;;
355;SDS011;62514;48.112;11.566;2024-01-16T07:18:03;81.17;;;35.53;;
355;SDS011;62514;48.112;11.566;2024-01-16T07:20:29;70.10;;;29.80;;
355;SDS011;62514;48.112;11.566;2024-01-16T07:22:55;72.97;;;30.97;;
355;SDS011;62514;48.112;11.566;2024-01-16T07:25:21;71.97;;;30.70;;
355;SDS011;62514;48.112;11.566;2024-01-16T07:27:47;69.67;;;29.93;;
355;SDS011;62514;48.112;11.566;2024-01-16T07:30:15;76.20;;;32.30;;
355;SDS011;62514;48.112;11.566;2024-01-16T07:32:41;71.93;;;30.40;;
355;SDS011;62514;48.112;11.566;2024-01-16T07:35:07;68.13;;;29.17;;
355;SDS011;62514;48.112;11.566;2024-01-16T07:37:33;73.33;;;31.47;;
355;SDS011;62514;48.112;11.566;2024-01-16T07:39:59;76.60;;;32.13;;
355;SDS011;62514;48.112;11.566;2024-01-16T07:42:25;72.60;;;30.73;;
355;SDS011;62514;48.112;11.566;2024-01-16T07:44:52;74.30;;;31.30;;
355;SDS011;62514;48.112;11.566;2024-01-16T07:47:18;69.80;;;30.10;;
355;SDS011;62514;48.112;11.566;2024-01-16T07:49:44;74.57;;;31.57;;
355;SDS011;62514;48.112;11.566;2024-01-16T07:52:10;72.57;;;31.03;;
355;SDS011;62514;48.112;11.566;2024-01-16T07:54:37;74.63;;;31.53;;
355;SDS011;62514;48.112;11.566;2024-01-16T07:57:03;78.67;;;32.90;;
355;SDS011;62514;48.112;11.566;2024-01-16T07:59:29;74.57;;;31.07;;
355;SDS011;62514;48.112;11.566;2024-01-16T08:01:55;74.03;;;31.73;;
355;SDS011;62514;48.112;11.566;2024-01-16T08:04:22;70.23;;;30.13;;
355;SDS011;62514;48.112;11.566;2024-01-16T08:06:48;74.00;;;31.57;;
355;SDS011;62514;48.112;11.566;2024-01-16T08:09:14;71.80;;;30.33;;
355;SDS011;62514;48.112;11.566;2024-01-16T08:11:40;75.83;;;32.77;;
355;SDS011;62514;48.112;11.566;2024-01-16T08:14:06;73.97;;;31.60;;
355;SDS011;62514;48.112;11.566;2024-01-16T08:16:32;75.50;;;32.20;;
355;SDS011;62514;48.112;11.566;2024-01-16T08:18:58;87.10;;;36.63;;
355;SDS011;62514;48.112;11.566;2024-01-16T08:21:23;71.37;;;30.40;;
355;SDS011;62514;48.112;11.566;2024-01-16T08:23:49;69.77;;;29.70;;
355;SDS011;62514;48.112;11.566;2024-01-16T08:26:15;75.87;;;31.70;;
355;SDS011;62514;48.112;11.566;2024-01-16T08:28:41;74.63;;;31.13;;
355;SDS011;62514;48.112;11.566;2024-01-16T08:31:07;72.00;;;30.13;;
355;SDS011;62514;48.112;11.566;2024-01-16T08:33:33;72.20;;;30.00;;
355;SDS011;62514;48.112;11.566;2024-01-16T08:35:59;75.50;;;31.00;;
355;SDS011;62514;48.112;11.566;2024-01-16T08:38:25;73.20;;;30.50;;
355;SDS011;62514;48.112;11.566;2024-01-16T08:40:51;81.47;;;32.97;;
355;SDS011;62514;48.112;11.566;2024-01-16T08:43:17;73.70;;;30.37;;
355;SDS011;62514;48.112;11.566;2024-01-16T08:45:43;76.93;;;31.57;;
355;SDS011;62514;48.112;11.566;2024-01-16T08:48:09;79.87;;;32.43;;
355;SDS011;62514;48.112;11.566;2024-01-16T08:50:35;75.70;;;30.77;;
355;SDS011;62514;48.112;11.566;2024-01-16T08:53:01;78.53;;;32.00;;
355;SDS011;62514;48.112;11.566;2024-01-16T08:55:27;78.50;;;32.07;;
355;SDS011;62514;48.112;11.566;2024-01-16T08:57:54;85.33;;;36.23;;
355;SDS011;62514;48.112;11.566;2024-01-16T09:00:20;77.17;;;31.80;;
355;SDS011;62514;48.112;11.566;2024-01-16T09:02:46;82.20;;;34.00;;
355;SDS011;62514;48.112;11.566;2024-01-16T09:05:14;77.00;;;31.67;;
355;SDS011;62514;48.112;11.566;2024-01-16T09:07:40;78.23;;;31.67;;
355;SDS011;62514;48.112;11.566;2024-01-16T09:10:06;80.40;;;32.90;;
355;SDS011;62514;48.112;11.566;2024-01-16T09:12:32;81.00;;;32.80;;
355;SDS011;62514;48.112;11.566;2024-01-16T09:14:58;83.23;;;32.87;;
355;SDS011;62514;48.112;11.566;2024-01-16T09:17:24;81.37;;;33.17;;
355;SDS011;62514;48.112;11.566;2024-01-16T09:19:53;80.00;;;31.80;;
355;SDS011;62514;48.112;11.566;2024-01-16T09:22:19;78.30;;;31.40;;
355;SDS011;62514;48.112;11.566;2024-01-16T09:24:45;79.60;;;31.90;;
355;SDS011;62514;48.112;11.566;2024-01-16T09:27:11;85.87;;;33.73;;
355;SDS011;62514;48.112;11.566;2024-01-16T09:29:37;80.80;;;32.40;;
355;SDS011;62514;48.112;11.566;2024-01-16T09:32:03;91.50;;;35.70;;
355;SDS011;62514;48.112;11.566;2024-01-16T09:34:30;83.73;;;33.17;;
355;SDS011;62514;48.112;11.566;2024-01-16T09:36:55;79.37;;;31.73;;
355;SDS011;62514;48.112;11.566;2024-01-16T09:39:24;84.73;;;33.40;;
355;SDS011;62514;48.112;11.566;2024-01-16T09:41:50;97.20;;;37.70;;
355;SDS011;62514;48.112;11.566;2024-01-16T09:44:16;84.97;;;33.47;;
355;SDS011;62514;48.112;11.566;2024-01-16T09:46:43;89.73;;;33.53;;
355;SDS011;62514;48.112;11.566;2024-01-16T09:49:12;84.77;;;32.87;;
355;SDS011;62514;48.112;11.566;2024-01-16T09:51:42;92.60;;;36.10;;
355;SDS011;62514;48.112;11.566;2024-01-16T09:54:08;99.20;;;38.03;;
355;SDS011;62514;48.112;11.566;2024-01-16T09:56:35;93.57;;;34.87;;
355;SDS011;62514;48.112;11.566;2024-01-16T09:59:07;90.40;;;34.27;;
355;SDS011;62514;48.112;11.566;2024-01-16T10:01:35;96.93;;;36.00;;
355;SDS011;62514;48.112;11.566;2024-01-16T10:04:03;94.63;;;35.47;;
355;SDS011;62514;48.112;11.566;2024-01-16T10:06:29;94.63;;;34.93;;
355;SDS011;62514;48.112;11.566;2024-01-16T10:08:59;92.00;;;34.30;;
355;SDS011;62514;48.112;11.566;2024-01-16T10:11:25;89.37;;;34.07;;
355;SDS011;62514;48.112;11.566;2024-01-16T10:13:51;95.83;;;35.83;;
355;SDS011;62514;48.112;11.566;2024-01-16T10:16:17;96.00;;;35.90;;
355;SDS011;62514;48.112;11.566;2024-01-16T10:18:43;94.33;;;35.27;;
355;SDS011;62514;48.112;11.566;2024-01-16T10:21:21;88.40;;;33.90;;
355;SDS011;62514;48.112;11.566;2024-01-16T10:23:49;93.47;;;35.53;;
355;SDS011;62514;48.112;11.566;2024-01-16T10:26:14;96.77;;;35.70;;
355;SDS011;62514;48.112;11.566;2024-01-16T10:28:41;101.90;;;37.20;;
355;SDS011;62514;48.112;11.566;2024-01-16T10:31:08;93.87;;;34.87;;
355;SDS011;62514;48.112;11.566;2024-01-16T10:33:36;96.47;;;34.90;;
355;SDS011;62514;48.112;11.566;2024-01-16T10:36:08;99.67;;;35.80;;
355;SDS011;62514;48.112;11.566;2024-01-16T10:38:35;100.57;;;36.27;;
355;SDS011;62514;48.112;11.566;2024-01-16T10:41:11;102.90;;;37.03;;
355;SDS011;62514;48.112;11.566;2024-01-16T10:43:39;98.37;;;35.53;;
355;SDS011;62514;48.112;11.566;2024-01-16T10:46:09;96.97;;;35.27;;
355;SDS011;62514;48.112;11.566;2024-01-16T10:48:40;101.50;;;36.57;;
355;SDS011;62514;48.112;11.566;2024-01-16T10:51:08;96.37;;;34.97;;
355;SDS011;62514;48.112;11.566;2024-01-16T10:53:37;95.70;;;34.70;;
355;SDS011;62514;48.112;11.566;2024-01-16T10:56:10;98.77;;;35.90;;
355;SDS011;62514;48.112;11.566;2024-01-16T10:58:38;104.67;;;39.23;;
355;SDS011;62514;48.112;11.566;2024-01-16T11:01:07;100.40;;;36.47;;
355;SDS011;62514;48.112;11.566;2024-01-16T11:03:39;97.50;;;35.87;;
355;SDS011;62514;48.112;11.566;2024-01-16T11:06:11;101.00;;;35.80;;
355;SDS011;62514;48.112;11.566;2024-01-16T11:08:39;105.30;;;37.20;;
355;SDS011;62514;48.112;11.566;2024-01-16T11:11:06;103.87;;;37.23;;
355;SDS011;62514;48.112;11.566;2024-01-16T11:13:34;107.10;;;39.03;;
355;SDS011;62514;48.112;11.566;2024-01-16T11:16:04;101.40;;;37.13;;
355;SDS011;62514;48.112;11.566;2024-01-16T11:18:31;100.40;;;36.67;;
355;SDS011;62514;48.112;11.566;2024-01-16T11:21:01;105.70;;;38.40;;
355;SDS011;62514;48.112;11.566;2024-01-16T11:23:30;102.40;;;36.77;;
355;SDS011;62514;48.112;11.566;2024-01-16T11:25:56;99.17;;;35.80;;
355;SDS011;62514;48.112;11.566;2024-01-16T11:28:26;103.70;;;37.80;;
355;SDS011;62514;48.112;11.566;2024-01-16T11:30:55;101.83;;;37.20;;
355;SDS011;62514;48.112;11.566;2024-01-16T11:35:57;106.70;;;37.20;;
355;SDS011;62514;48.112;11.566;2024-01-16T11:38:23;110.73;;;38.73;;
355;SDS011;62514;48.112;11.566;2024-01-16T11:40:55;105.40;;;37.13;;
355;SDS011;62514;48.112;11.566;2024-01-16T11:43:40;109.73;;;39.17;;
355;SDS011;62514;48.112;11.566;2024-01-16T11:46:06;100.40;;;35.60;;
355;SDS011;62514;48.112;11.566;2024-01-16T11:48:33;97.50;;;35.37;;
355;SDS011;62514;48.112;11.566;2024-01-16T11:50:59;103.87;;;36.80;;
355;SDS011;62514;48.112;11.566;2024-01-16T11:53:38;111.63;;;38.93;;
355;SDS011;62514;48.112;11.566;2024-01-16T11:58:48;110.90;;;38.63;;
355;SDS011;62514;48.112;11.566;2024-01-16T12:01:22;110.00;;;39.03;;
355;SDS011;62514;48.112;11.566;2024-01-16T12:04:07;108.57;;;37.70;;
355;SDS011;62514;48.112;11.566;2024-01-16T12:06:35;107.73;;;38.43;;
355;SDS011;62514;48.112;11.566;2024-01-16T12:09:11;115.03;;;39.90;;
355;SDS011;62514;48.112;11.566;2024-01-16T12:11:41;118.20;;;40.93;;
355;SDS011;62514;48.112;11.566;2024-01-16T12:14:13;116.03;;;40.87;;
355;SDS011;62514;48.112;11.566;2024-01-16T12:16:39;124.23;;;43.23;;
355;SDS011;62514;48.112;11.566;2024-01-16T12:19:08;110.50;;;38.60;;
355;SDS011;62514;48.112;11.566;2024-01-16T12:21:38;108.30;;;37.90;;
355;SDS011;62514;48.112;11.566;2024-01-16T12:24:06;106.90;;;37.37;;
355;SDS011;62514;48.112;11.566;2024-01-16T12:26:32;109.63;;;38.10;;
355;SDS011;62514;48.112;11.566;2024-01-16T12:28:58;116.40;;;39.97;;
355;SDS011;62514;48.112;11.566;2024-01-16T12:31:24;114.23;;;39.17;;
355;SDS011;62514;48.112;11.566;2024-01-16T12:33:51;118.03;;;40.00;;
355;SDS011;62514;48.112;11.566;2024-01-16T12:36:17;114.70;;;39.87;;
355;SDS011;62514;48.112;11.566;2024-01-16T12:38:43;116.93;;;40.00;;
355;SDS011;62514;48.112;11.566;2024-01-16T12:41:09;115.87;;;39.73;;
355;SDS011;62514;48.112;11.566;2024-01-16T12:43:36;114.87;;;39.47;;
355;SDS011;62514;48.112;11.566;2024-01-16T12:46:02;115.90;;;39.73;;
355;SDS011;62514;48.112;11.566;2024-01-16T12:48:28;117.13;;;40.53;;
355;SDS011;62514;48.112;11.566;2024-01-16T12:51:04;125.27;;;42.97;;
355;SDS011;62514;48.112;11.566;2024-01-16T12:53:32;116.50;;;39.57;;
355;SDS011;62514;48.112;11.566;2024-01-16T12:56:01;108.20;;;37.90;;
355;SDS011;62514;48.112;11.566;2024-01-16T12:58:35;123.07;;;41.77;;
355;SDS011;62514;48.112;11.566;2024-01-16T13:01:24;107.30;;;37.53;;
355;SDS011;62514;48.112;11.566;2024-01-16T13:03:51;113.77;;;39.43;;
355;SDS011;62514;48.112;11.566;2024-01-16T13:06:18;113.20;;;38.73;;
355;SDS011;62514;48.112;11.566;2024-01-16T13:08:48;120.33;;;41.10;;
355;SDS011;62514;48.112;11.566;2024-01-16T13:11:15;113.73;;;39.60;;
355;SDS011;62514;48.112;11.566;2024-01-16T13:13:47;121.43;;;41.37;;
355;SDS011;62514;48.112;11.566;2024-01-16T13:16:15;117.97;;;40.87;;
355;SDS011;62514;48.112;11.566;2024-01-16T13:18:41;108.83;;;37.90;;
355;SDS011;62514;48.112;11.566;2024-01-16T13:21:08;111.30;;;39.20;;
355;SDS011;62514;48.112;11.566;2024-01-16T13:23:34;123.00;;;42.87;;
355;SDS011;62514;48.112;11.566;2024-01-16T13:26:00;114.30;;;39.40;;
355;SDS011;62514;48.112;11.566;2024-01-16T13:28:30;111.13;;;38.67;;
355;SDS011;62514;48.112;11.566;2024-01-16T13:30:56;109.93;;;38.47;;
355;SDS011;62514;48.112;11.566;2024-01-16T13:33:23;108.83;;;38.40;;
355;SDS011;62514;48.112;11.566;2024-01-16T13:35:52;116.00;;;39.40;;
355;SDS011;62514;48.112;11.566;2024-01-16T13:38:19;106.40;;;38.20;;
355;SDS011;62514;48.112;11.566;2024-01-16T13:40:46;108.37;;;38.77;;
355;SDS011;62514;48.112;11.566;2024-01-16T13:43:12;106.57;;;37.50;;
355;SDS011;62514;48.112;11.566;2024-01-16T13:45:38;114.77;;;39.50;;
355;SDS011;62514;48.112;11.566;2024-01-16T13:48:06;124.23;;;43.23;;
355;SDS011;62514;48.112;11.566;2024-01-16T13:50:33;113.33;;;39.23;;
355;SDS011;62514;48.112;11.566;2024-01-16T13:53:02;111.47;;;38.57;;
355;SDS011;62514;48.112;11.566;2024-01-16T13:55:28;119.20;;;42.10;;
355;SDS011;62514;48.112;11.566;2024-01-16T13:57:57;144.13;;;55.13;;
355;SDS011;62514;48.112;11.566;2024-01-16T14:00:23;106.70;;;37.07;;
355;SDS011;62514;48.112;11.566;2024-01-16T14:02:49;104.27;;;36.17;;
355;SDS011;62514;48.112;11.566;2024-01-16T14:05:17;111.67;;;39.13;;
355;SDS011;62514;48.112;11.566;2024-01-16T14:07:44;107.60;;;37.70;;
355;SDS011;62514;48.112;11.566;2024-01-16T14:10:16;103.00;;;37.00;;
355;SDS011;62514;48.112;11.566;2024-01-16T14:12:43;103.37;;;37.17;;
355;SDS011;62514;48.112;11.566;2024-01-16T14:15:10;102.53;;;36.73;;
355;SDS011;62514;48.112;11.566;2024-01-16T14:17:55;108.03;;;37.90;;
355;SDS011;62514;48.112;11.566;2024-01-16T14:20:22;100.77;;;36.20;;
355;SDS011;62514;48.112;11.566;2024-01-16T14:22:51;108.73;;;38.03;;
355;SDS011;62514;48.112;11.566;2024-01-16T14:25:18;106.00;;;37.10;;
355;SDS011;62514;48.112;11.566;2024-01-16T14:27:48;106.67;;;37.37;;
355;SDS011;62514;48.112;11.566;2024-01-16T14:30:23;112.07;;;38.27;;
355;SDS011;62514;48.112;11.566;2024-01-16T14:32:51;117.30;;;40.57;;
355;SDS011;62514;48.112;11.566;2024-01-16T14:35:18;108.73;;;37.87;;